sensor_id;sensor_type;location;lat;lon;timestamp;pressure;altitude;pressure_sealevel;temperature;humidity
75497;BME280;64074;47.540;19.072;2022-10-20T00:02:09;101441.50;;;8.49;65.55
75497;BME280;64074;47.540;19.072;2022-10-20T00:05:39;101437.97;;;8.48;66.18
75497;BME280;64074;47.540;19.072;2022-10-20T00:09:07;101443.00;;;8.40;66.23
75497;BME280;64074;47.540;19.072;2022-10-20T00:12:31;101447.84;;;8.38;66.09
75497;BME280;64074;47.540;19.072;2022-10-20T00:15:55;101448.09;;;8.36;66.73
75497;BME280;64074;47.540;19.072;2022-10-20T00:19:05;101457.28;;;8.35;66.71
75497;BME280;64074;47.540;19.072;2022-10-20T00:22:14;101453.94;;;8.28;66.40
75497;BME280;64074;47.540;19.072;2022-10-20T00:25:23;101459.59;;;8.26;66.70
75497;BME280;64074;47.540;19.072;2022-10-20T00:28:33;101466.00;;;8.20;67.14
75497;BME280;64074;47.540;19.072;2022-10-20T00:31:55;101462.66;;;8.13;67.33
75497;BME280;64074;47.540;19.072;2022-10-20T00:35:02;101466.94;;;8.09;67.32
75497;BME280;64074;47.540;19.072;2022-10-20T00:38:09;101471.16;;;8.00;67.61
75497;BME280;64074;47.540;19.072;2022-10-20T00:41:19;101461.72;;;8.02;67.77
75497;BME280;64074;47.540;19.072;2022-10-20T00:44:58;101469.81;;;8.02;67.94
75497;BME280;64074;47.540;19.072;2022-10-20T00:48:15;101470.84;;;7.96;67.50
75497;BME280;64074;47.540;19.072;2022-10-20T00:51:28;101464.28;;;7.92;67.88
75497;BME280;64074;47.540;19.072;2022-10-20T00:54:47;101471.81;;;7.90;68.26
75497;BME280;64074;47.540;19.072;2022-10-20T00:58:06;101469.09;;;7.90;68.02
75497;BME280;64074;47.540;19.072;2022-10-20T01:01:18;101478.28;;;7.89;68.20
75497;BME280;64074;47.540;19.072;2022-10-20T01:04:44;101472.56;;;7.86;68.27
75497;BME280;64074;47.540;19.072;2022-10-20T01:08:05;101475.50;;;7.84;68.08
75497;BME280;64074;47.540;19.072;2022-10-20T01:15:22;101475.19;;;7.81;68.53
75497;BME280;64074;47.540;19.072;2022-10-20T01:28:59;101474.50;;;7.68;68.87
75497;BME280;64074;47.540;19.072;2022-10-20T01:35:53;101478.47;;;7.66;68.62
75497;BME280;64074;47.540;19.072;2022-10-20T01:39:32;101477.34;;;7.62;69.30
75497;BME280;64074;47.540;19.072;2022-10-20T01:42:51;101479.72;;;7.58;69.24
75497;BME280;64074;47.540;19.072;2022-10-20T01:46:09;101478.09;;;7.57;69.56
75497;BME280;64074;47.540;19.072;2022-10-20T01:49:30;101480.41;;;7.49;69.49
75497;BME280;64074;47.540;19.072;2022-10-20T01:52:58;101473.63;;;7.46;70.37
75497;BME280;64074;47.540;19.072;2022-10-20T01:56:17;101475.00;;;7.49;70.08
75497;BME280;64074;47.540;19.072;2022-10-20T01:59:52;101477.94;;;7.47;69.87
75497;BME280;64074;47.540;19.072;2022-10-20T02:06:34;101476.06;;;7.31;71.12
75497;BME280;64074;47.540;19.072;2022-10-20T02:09:52;101480.97;;;7.34;70.80
75497;BME280;64074;47.540;19.072;2022-10-20T02:13:10;101470.66;;;7.31;70.94
75497;BME280;64074;47.540;19.072;2022-10-20T02:16:30;101477.63;;;7.27;71.05
75497;BME280;64074;47.540;19.072;2022-10-20T02:19:49;101478.94;;;7.24;71.68
75497;BME280;64074;47.540;19.072;2022-10-20T02:23:02;101487.97;;;7.18;71.67
75497;BME280;64074;47.540;19.072;2022-10-20T02:26:31;101484.38;;;7.13;71.96
75497;BME280;64074;47.540;19.072;2022-10-20T02:29:49;101486.03;;;7.14;72.51
75497;BME280;64074;47.540;19.072;2022-10-20T02:33:17;101495.25;;;7.18;72.44
75497;BME280;64074;47.540;19.072;2022-10-20T02:36:41;101501.72;;;7.17;72.42
75497;BME280;64074;47.540;19.072;2022-10-20T02:39:51;101492.56;;;7.18;72.13
75497;BME280;64074;47.540;19.072;2022-10-20T02:43:21;101504.16;;;7.18;72.43
75497;BME280;64074;47.540;19.072;2022-10-20T02:46:44;101505.88;;;7.07;72.52
75497;BME280;64074;47.540;19.072;2022-10-20T02:50:09;101513.41;;;7.05;72.13
75497;BME280;64074;47.540;19.072;2022-10-20T02:53:32;101512.81;;;7.03;72.01
75497;BME280;64074;47.540;19.072;2022-10-20T02:56:48;101518.00;;;6.93;72.59
75497;BME280;64074;47.540;19.072;2022-10-20T03:00:14;101519.56;;;6.89;72.29
75497;BME280;64074;47.540;19.072;2022-10-20T03:03:34;101519.06;;;6.92;72.22
75497;BME280;64074;47.540;19.072;2022-10-20T03:06:58;101516.25;;;6.99;71.24
75497;BME280;64074;47.540;19.072;2022-10-20T03:10:20;101519.84;;;7.04;71.73
75497;BME280;64074;47.540;19.072;2022-10-20T03:13:44;101529.16;;;6.97;71.63
75497;BME280;64074;47.540;19.072;2022-10-20T03:16:57;101535.69;;;7.01;71.89
75497;BME280;64074;47.540;19.072;2022-10-20T03:20:27;101537.91;;;7.04;72.15
75497;BME280;64074;47.540;19.072;2022-10-20T03:23:47;101533.00;;;7.01;71.78
75497;BME280;64074;47.540;19.072;2022-10-20T03:27:07;101539.22;;;7.01;72.21
75497;BME280;64074;47.540;19.072;2022-10-20T03:30:27;101537.94;;;6.92;72.30
75497;BME280;64074;47.540;19.072;2022-10-20T03:33:47;101538.00;;;6.81;72.65
75497;BME280;64074;47.540;19.072;2022-10-20T03:37:13;101536.06;;;6.64;73.48
75497;BME280;64074;47.540;19.072;2022-10-20T03:40:34;101538.53;;;6.66;74.23
75497;BME280;64074;47.540;19.072;2022-10-20T03:43:54;101542.91;;;6.55;74.19
75497;BME280;64074;47.540;19.072;2022-10-20T03:47:14;101536.59;;;6.50;73.94
75497;BME280;64074;47.540;19.072;2022-10-20T03:50:29;101540.22;;;6.43;74.42
75497;BME280;64074;47.540;19.072;2022-10-20T03:53:36;101541.03;;;6.44;74.02
75497;BME280;64074;47.540;19.072;2022-10-20T03:56:45;101543.53;;;6.45;73.92
75497;BME280;64074;47.540;19.072;2022-10-20T04:00:07;101553.16;;;6.30;75.14
75497;BME280;64074;47.540;19.072;2022-10-20T04:03:27;101546.09;;;6.40;74.90
75497;BME280;64074;47.540;19.072;2022-10-20T04:06:49;101543.28;;;6.35;74.63
75497;BME280;64074;47.540;19.072;2022-10-20T04:10:11;101549.41;;;6.19;75.10
75497;BME280;64074;47.540;19.072;2022-10-20T04:13:34;101552.69;;;6.21;74.92
75497;BME280;64074;47.540;19.072;2022-10-20T04:16:40;101557.13;;;6.15;75.98
75497;BME280;64074;47.540;19.072;2022-10-20T04:19:45;101543.56;;;6.22;75.59
75497;BME280;64074;47.540;19.072;2022-10-20T04:22:51;101539.72;;;6.06;76.66
75497;BME280;64074;47.540;19.072;2022-10-20T04:25:56;101548.25;;;6.03;77.37
75497;BME280;64074;47.540;19.072;2022-10-20T04:29:01;101547.09;;;5.99;77.62
75497;BME280;64074;47.540;19.072;2022-10-20T04:32:10;101550.59;;;6.11;77.41
75497;BME280;64074;47.540;19.072;2022-10-20T04:35:18;101550.13;;;6.03;78.08
75497;BME280;64074;47.540;19.072;2022-10-20T04:38:29;101542.97;;;5.85;78.89
75497;BME280;64074;47.540;19.072;2022-10-20T04:41:33;101539.56;;;5.78;79.61
75497;BME280;64074;47.540;19.072;2022-10-20T04:44:39;101546.97;;;5.94;79.16
75497;BME280;64074;47.540;19.072;2022-10-20T04:47:43;101547.56;;;6.08;79.06
75497;BME280;64074;47.540;19.072;2022-10-20T04:51:08;101545.19;;;6.11;79.08
75497;BME280;64074;47.540;19.072;2022-10-20T04:54:17;101548.72;;;6.00;80.07
75497;BME280;64074;47.540;19.072;2022-10-20T04:57:26;101550.13;;;6.03;81.25
75497;BME280;64074;47.540;19.072;2022-10-20T05:00:48;101541.72;;;5.99;80.67
75497;BME280;64074;47.540;19.072;2022-10-20T05:04:11;101551.19;;;5.90;81.60
75497;BME280;64074;47.540;19.072;2022-10-20T05:07:34;101561.94;;;5.90;80.69
75497;BME280;64074;47.540;19.072;2022-10-20T05:10:53;101558.88;;;5.86;80.55
75497;BME280;64074;47.540;19.072;2022-10-20T05:14:17;101567.78;;;5.75;80.76
75497;BME280;64074;47.540;19.072;2022-10-20T05:17:39;101570.56;;;5.69;81.43
75497;BME280;64074;47.540;19.072;2022-10-20T05:21:11;101579.59;;;5.74;80.97
75497;BME280;64074;47.540;19.072;2022-10-20T05:24:29;101582.13;;;5.69;81.06
75497;BME280;64074;47.540;19.072;2022-10-20T05:27:47;101586.03;;;5.85;80.52
75497;BME280;64074;47.540;19.072;2022-10-20T05:31:07;101590.94;;;5.76;80.92
75497;BME280;64074;47.540;19.072;2022-10-20T05:34:30;101599.94;;;5.70;81.35
75497;BME280;64074;47.540;19.072;2022-10-20T05:37:37;101602.63;;;5.70;81.05
75497;BME280;64074;47.540;19.072;2022-10-20T05:40:47;101609.03;;;5.69;81.34
75497;BME280;64074;47.540;19.072;2022-10-20T05:44:02;101608.03;;;5.70;81.71
75497;BME280;64074;47.540;19.072;2022-10-20T05:53:15;101621.94;;;5.79;81.19
75497;BME280;64074;47.540;19.072;2022-10-20T05:56:45;101626.75;;;5.88;81.36
75497;BME280;64074;47.540;19.072;2022-10-20T05:59:52;101631.47;;;6.05;80.00
75497;BME280;64074;47.540;19.072;2022-10-20T06:03:03;101628.44;;;6.13;80.16
75497;BME280;64074;47.540;19.072;2022-10-20T06:10:46;101647.75;;;6.33;78.38
75497;BME280;64074;47.540;19.072;2022-10-20T06:14:15;101634.50;;;6.43;78.12
75497;BME280;64074;47.540;19.072;2022-10-20T06:17:26;101645.75;;;6.40;77.90
75497;BME280;64074;47.540;19.072;2022-10-20T06:25:04;101661.22;;;6.33;78.32
75497;BME280;64074;47.540;19.072;2022-10-20T06:28:18;101655.47;;;6.53;77.26
75497;BME280;64074;47.540;19.072;2022-10-20T06:32:05;101669.63;;;6.72;77.12
75497;BME280;64074;47.540;19.072;2022-10-20T06:35:09;101673.63;;;6.69;76.61
75497;BME280;64074;47.540;19.072;2022-10-20T06:38:23;101672.19;;;6.78;76.87
75497;BME280;64074;47.540;19.072;2022-10-20T06:42:06;101681.88;;;6.91;76.66
75497;BME280;64074;47.540;19.072;2022-10-20T06:45:42;101672.25;;;7.07;76.96
75497;BME280;64074;47.540;19.072;2022-10-20T06:53:41;101671.53;;;7.40;75.93
75497;BME280;64074;47.540;19.072;2022-10-20T06:57:15;101676.44;;;7.43;75.12
75497;BME280;64074;47.540;19.072;2022-10-20T07:10:01;101694.78;;;7.69;74.18
75497;BME280;64074;47.540;19.072;2022-10-20T07:13:12;101694.13;;;7.79;73.18
75497;BME280;64074;47.540;19.072;2022-10-20T07:16:36;101706.06;;;7.83;72.78
75497;BME280;64074;47.540;19.072;2022-10-20T07:24:10;101701.09;;;8.09;71.88
75497;BME280;64074;47.540;19.072;2022-10-20T07:27:24;101707.88;;;8.11;71.99
75497;BME280;64074;47.540;19.072;2022-10-20T07:34:45;101696.59;;;8.31;71.62
75497;BME280;64074;47.540;19.072;2022-10-20T07:37:54;101691.63;;;8.40;71.86
75497;BME280;64074;47.540;19.072;2022-10-20T07:49:07;101691.09;;;8.98;69.06
75497;BME280;64074;47.540;19.072;2022-10-20T07:52:37;101692.59;;;9.11;69.02
75497;BME280;64074;47.540;19.072;2022-10-20T08:01:28;101696.91;;;9.55;67.02
75497;BME280;64074;47.540;19.072;2022-10-20T08:17:32;101702.47;;;10.30;61.31
75497;BME280;64074;47.540;19.072;2022-10-20T08:25:55;101712.25;;;10.36;60.84
75497;BME280;64074;47.540;19.072;2022-10-20T08:29:13;101698.84;;;10.56;60.06
75497;BME280;64074;47.540;19.072;2022-10-20T08:32:44;101708.09;;;10.60;59.85
75497;BME280;64074;47.540;19.072;2022-10-20T08:35:55;101713.53;;;10.60;60.06
75497;BME280;64074;47.540;19.072;2022-10-20T08:39:25;101709.84;;;10.82;59.27
75497;BME280;64074;47.540;19.072;2022-10-20T08:42:38;101705.53;;;10.86;58.73
75497;BME280;64074;47.540;19.072;2022-10-20T08:45:58;101712.31;;;10.83;59.27
75497;BME280;64074;47.540;19.072;2022-10-20T08:49:19;101711.59;;;11.03;58.85
75497;BME280;64074;47.540;19.072;2022-10-20T08:52:39;101708.34;;;11.06;58.81
75497;BME280;64074;47.540;19.072;2022-10-20T09:01:33;101716.56;;;11.21;58.33
75497;BME280;64074;47.540;19.072;2022-10-20T09:10:40;101719.88;;;11.38;58.20
75497;BME280;64074;47.540;19.072;2022-10-20T09:23:03;101716.66;;;11.57;57.96
75497;BME280;64074;47.540;19.072;2022-10-20T09:26:49;101725.97;;;11.76;56.29
75497;BME280;64074;47.540;19.072;2022-10-20T09:43:40;101723.84;;;12.04;55.30
75497;BME280;64074;47.540;19.072;2022-10-20T09:47:12;101718.69;;;12.22;55.02
75497;BME280;64074;47.540;19.072;2022-10-20T09:54:29;101708.38;;;12.19;54.85
75497;BME280;64074;47.540;19.072;2022-10-20T09:58:04;101710.81;;;12.26;54.93
75497;BME280;64074;47.540;19.072;2022-10-20T10:01:14;101702.34;;;12.32;55.72
75497;BME280;64074;47.540;19.072;2022-10-20T10:12:19;101693.38;;;12.52;55.00
75497;BME280;64074;47.540;19.072;2022-10-20T10:15:32;101695.00;;;12.48;54.34
75497;BME280;64074;47.540;19.072;2022-10-20T10:18:59;101701.50;;;12.57;53.64
75497;BME280;64074;47.540;19.072;2022-10-20T10:22:16;101687.59;;;12.79;52.89
75497;BME280;64074;47.540;19.072;2022-10-20T10:25:33;101676.41;;;12.91;52.36
75497;BME280;64074;47.540;19.072;2022-10-20T10:28:56;101688.91;;;12.97;52.51
75497;BME280;64074;47.540;19.072;2022-10-20T10:32:43;101686.44;;;13.01;52.32
75497;BME280;64074;47.540;19.072;2022-10-20T10:35:51;101671.97;;;13.05;52.43
75497;BME280;64074;47.540;19.072;2022-10-20T10:39:05;101671.13;;;13.15;51.45
75497;BME280;64074;47.540;19.072;2022-10-20T11:11:40;101636.69;;;13.78;49.89
75497;BME280;64074;47.540;19.072;2022-10-20T11:20:20;101621.88;;;14.19;48.72
75497;BME280;64074;47.540;19.072;2022-10-20T11:27:03;101605.03;;;14.40;48.11
75497;BME280;64074;47.540;19.072;2022-10-20T11:45:08;101579.94;;;15.05;46.40
75497;BME280;64074;47.540;19.072;2022-10-20T12:10:24;101562.03;;;15.50;44.00
75497;BME280;64074;47.540;19.072;2022-10-20T12:14:02;101560.81;;;15.43;43.72
75497;BME280;64074;47.540;19.072;2022-10-20T12:17:41;101564.69;;;15.55;43.36
75497;BME280;64074;47.540;19.072;2022-10-20T12:21:05;101555.63;;;15.92;43.42
75497;BME280;64074;47.540;19.072;2022-10-20T12:37:39;101531.50;;;16.36;40.86
75497;BME280;64074;47.540;19.072;2022-10-20T12:41:40;101543.81;;;15.46;42.68
75497;BME280;64074;47.540;19.072;2022-10-20T12:45:28;101532.19;;;15.02;44.70
75497;BME280;64074;47.540;19.072;2022-10-20T13:02:50;101509.28;;;14.37;45.86
75497;BME280;64074;47.540;19.072;2022-10-20T13:18:55;101509.41;;;14.27;46.29
75497;BME280;64074;47.540;19.072;2022-10-20T13:27:41;101505.56;;;14.04;46.25
75497;BME280;64074;47.540;19.072;2022-10-20T13:34:14;101501.34;;;14.16;46.26
75497;BME280;64074;47.540;19.072;2022-10-20T13:52:58;101496.81;;;14.07;46.60
75497;BME280;64074;47.540;19.072;2022-10-20T13:56:36;101498.16;;;14.09;46.94
75497;BME280;64074;47.540;19.072;2022-10-20T14:00:16;101494.16;;;14.02;47.14
75497;BME280;64074;47.540;19.072;2022-10-20T14:03:42;101489.22;;;14.04;46.84
75497;BME280;64074;47.540;19.072;2022-10-20T14:06:52;101480.22;;;14.03;46.65
75497;BME280;64074;47.540;19.072;2022-10-20T14:13:58;101475.06;;;14.02;45.89
75497;BME280;64074;47.540;19.072;2022-10-20T14:17:21;101468.03;;;13.96;46.83
75497;BME280;64074;47.540;19.072;2022-10-20T14:20:37;101468.91;;;13.91;47.02
75497;BME280;64074;47.540;19.072;2022-10-20T14:24:05;101470.03;;;13.90;47.07
75497;BME280;64074;47.540;19.072;2022-10-20T14:27:31;101470.41;;;13.78;47.54
75497;BME280;64074;47.540;19.072;2022-10-20T14:30:43;101473.19;;;13.73;47.67
75497;BME280;64074;47.540;19.072;2022-10-20T14:33:53;101466.75;;;13.64;48.14
75497;BME280;64074;47.540;19.072;2022-10-20T14:37:38;101472.81;;;13.56;48.45
75497;BME280;64074;47.540;19.072;2022-10-20T14:40:57;101467.81;;;13.68;48.34
75497;BME280;64074;47.540;19.072;2022-10-20T14:44:18;101468.91;;;13.67;48.01
75497;BME280;64074;47.540;19.072;2022-10-20T14:47:39;101470.28;;;13.65;48.40
75497;BME280;64074;47.540;19.072;2022-10-20T14:50:54;101469.47;;;13.64;48.29
75497;BME280;64074;47.540;19.072;2022-10-20T14:54:34;101467.31;;;13.61;47.74
75497;BME280;64074;47.540;19.072;2022-10-20T14:57:44;101462.66;;;13.62;48.53
75497;BME280;64074;47.540;19.072;2022-10-20T15:01:20;101462.66;;;13.62;48.46
75497;BME280;64074;47.540;19.072;2022-10-20T15:04:29;101461.44;;;13.49;48.69
75497;BME280;64074;47.540;19.072;2022-10-20T15:07:46;101451.41;;;13.44;48.48
75497;BME280;64074;47.540;19.072;2022-10-20T15:10:59;101456.34;;;13.42;48.89
75497;BME280;64074;47.540;19.072;2022-10-20T15:14:15;101452.81;;;13.42;48.83
75497;BME280;64074;47.540;19.072;2022-10-20T15:20:51;101445.28;;;13.29;48.90
75497;BME280;64074;47.540;19.072;2022-10-20T15:23:58;101442.91;;;13.22;49.67
75497;BME280;64074;47.540;19.072;2022-10-20T15:27:13;101444.53;;;13.23;50.17
75497;BME280;64074;47.540;19.072;2022-10-20T15:30:32;101438.56;;;13.21;49.86
75497;BME280;64074;47.540;19.072;2022-10-20T15:33:55;101444.31;;;13.14;50.31
75497;BME280;64074;47.540;19.072;2022-10-20T15:37:13;101438.94;;;13.04;50.32
75497;BME280;64074;47.540;19.072;2022-10-20T15:40:41;101437.31;;;13.03;50.33
75497;BME280;64074;47.540;19.072;2022-10-20T15:43:51;101440.88;;;12.99;50.56
75497;BME280;64074;47.540;19.072;2022-10-20T15:47:20;101432.19;;;12.97;50.07
75497;BME280;64074;47.540;19.072;2022-10-20T15:50:48;101434.97;;;12.86;50.89
75497;BME280;64074;47.540;19.072;2022-10-20T15:54:20;101430.19;;;12.73;51.29
75497;BME280;64074;47.540;19.072;2022-10-20T15:57:32;101429.63;;;12.76;51.05
75497;BME280;64074;47.540;19.072;2022-10-20T16:00:53;101431.84;;;12.69;51.91
75497;BME280;64074;47.540;19.072;2022-10-20T16:04:19;101425.06;;;12.61;51.17
75497;BME280;64074;47.540;19.072;2022-10-20T16:07:36;101435.22;;;12.51;52.22
75497;BME280;64074;47.540;19.072;2022-10-20T16:10:51;101443.88;;;12.58;51.69
75497;BME280;64074;47.540;19.072;2022-10-20T16:14:21;101440.38;;;12.52;52.45
75497;BME280;64074;47.540;19.072;2022-10-20T16:18:04;101437.44;;;12.44;52.08
75497;BME280;64074;47.540;19.072;2022-10-20T16:21:34;101446.16;;;12.36;52.48
75497;BME280;64074;47.540;19.072;2022-10-20T16:25:01;101448.34;;;12.33;53.29
75497;BME280;64074;47.540;19.072;2022-10-20T16:28:30;101445.19;;;12.11;54.59
75497;BME280;64074;47.540;19.072;2022-10-20T16:32:06;101450.03;;;12.24;53.15
75497;BME280;64074;47.540;19.072;2022-10-20T16:35:26;101446.81;;;12.17;54.34
75497;BME280;64074;47.540;19.072;2022-10-20T16:38:41;101451.97;;;12.14;53.86
75497;BME280;64074;47.540;19.072;2022-10-20T16:41:45;101445.72;;;12.13;53.62
75497;BME280;64074;47.540;19.072;2022-10-20T16:44:52;101453.03;;;12.23;53.33
75497;BME280;64074;47.540;19.072;2022-10-20T16:48:02;101449.25;;;12.19;53.42
75497;BME280;64074;47.540;19.072;2022-10-20T16:51:22;101458.31;;;11.94;55.48
75497;BME280;64074;47.540;19.072;2022-10-20T16:54:42;101445.59;;;11.69;56.42
75497;BME280;64074;47.540;19.072;2022-10-20T16:58:03;101447.78;;;11.47;58.12
75497;BME280;64074;47.540;19.072;2022-10-20T17:01:23;101452.69;;;11.24;58.70
75497;BME280;64074;47.540;19.072;2022-10-20T17:04:51;101453.25;;;11.06;59.92
75497;BME280;64074;47.540;19.072;2022-10-20T17:08:18;101455.38;;;10.89;61.02
75497;BME280;64074;47.540;19.072;2022-10-20T17:11:32;101453.50;;;10.79;61.35
75497;BME280;64074;47.540;19.072;2022-10-20T17:14:52;101449.97;;;10.73;61.68
75497;BME280;64074;47.540;19.072;2022-10-20T17:18:12;101456.47;;;10.67;61.60
75497;BME280;64074;47.540;19.072;2022-10-20T17:21:36;101449.91;;;10.58;62.11
75497;BME280;64074;47.540;19.072;2022-10-20T17:25:05;101458.84;;;10.43;63.02
75497;BME280;64074;47.540;19.072;2022-10-20T17:28:09;101455.28;;;10.33;63.95
75497;BME280;64074;47.540;19.072;2022-10-20T17:31:18;101464.22;;;10.33;64.31
75497;BME280;64074;47.540;19.072;2022-10-20T17:34:27;101457.97;;;10.28;63.68
75497;BME280;64074;47.540;19.072;2022-10-20T17:37:50;101454.19;;;10.29;64.38
75497;BME280;64074;47.540;19.072;2022-10-20T17:41:17;101458.72;;;10.18;64.36
75497;BME280;64074;47.540;19.072;2022-10-20T17:44:34;101458.69;;;10.13;64.75
75497;BME280;64074;47.540;19.072;2022-10-20T17:47:56;101468.94;;;10.06;64.70
75497;BME280;64074;47.540;19.072;2022-10-20T17:51:18;101474.88;;;9.98;65.27
75497;BME280;64074;47.540;19.072;2022-10-20T17:54:23;101471.03;;;9.88;65.76
75497;BME280;64074;47.540;19.072;2022-10-20T17:57:33;101472.63;;;9.84;66.79
75497;BME280;64074;47.540;19.072;2022-10-20T18:00:37;101463.66;;;9.79;67.03
75497;BME280;64074;47.540;19.072;2022-10-20T18:04:15;101470.69;;;9.75;67.12
75497;BME280;64074;47.540;19.072;2022-10-20T18:07:33;101464.91;;;9.61;67.85
75497;BME280;64074;47.540;19.072;2022-10-20T18:10:43;101460.81;;;9.59;68.05
75497;BME280;64074;47.540;19.072;2022-10-20T18:13:57;101461.06;;;9.52;67.66
75497;BME280;64074;47.540;19.072;2022-10-20T18:17:01;101468.06;;;9.48;67.89
75497;BME280;64074;47.540;19.072;2022-10-20T18:20:11;101467.22;;;9.42;68.79
75497;BME280;64074;47.540;19.072;2022-10-20T18:23:26;101464.47;;;9.37;70.83
75497;BME280;64074;47.540;19.072;2022-10-20T18:26:39;101461.16;;;9.30;71.76
75497;BME280;64074;47.540;19.072;2022-10-20T18:29:50;101470.41;;;9.34;72.01
75497;BME280;64074;47.540;19.072;2022-10-20T18:33:20;101474.44;;;9.32;71.75
75497;BME280;64074;47.540;19.072;2022-10-20T18:36:31;101469.53;;;9.29;71.33
75497;BME280;64074;47.540;19.072;2022-10-20T18:39:41;101471.66;;;9.21;71.25
75497;BME280;64074;47.540;19.072;2022-10-20T18:42:52;101472.91;;;9.09;72.88
75497;BME280;64074;47.540;19.072;2022-10-20T18:46:03;101465.00;;;9.02;74.08
75497;BME280;64074;47.540;19.072;2022-10-20T18:49:31;101466.63;;;9.03;76.17
75497;BME280;64074;47.540;19.072;2022-10-20T18:52:52;101465.81;;;9.03;76.03
75497;BME280;64074;47.540;19.072;2022-10-20T18:56:17;101465.81;;;9.03;74.17
75497;BME280;64074;47.540;19.072;2022-10-20T18:59:38;101457.97;;;9.01;73.83
75497;BME280;64074;47.540;19.072;2022-10-20T19:02:49;101461.44;;;8.97;73.01
75497;BME280;64074;47.540;19.072;2022-10-20T19:06:02;101464.03;;;8.86;72.95
75497;BME280;64074;47.540;19.072;2022-10-20T19:09:08;101464.75;;;8.77;73.60
75497;BME280;64074;47.540;19.072;2022-10-20T19:12:18;101469.75;;;8.63;73.77
75497;BME280;64074;47.540;19.072;2022-10-20T19:15:31;101462.66;;;8.57;74.54
75497;BME280;64074;47.540;19.072;2022-10-20T19:18:53;101465.25;;;8.47;74.28
75497;BME280;64074;47.540;19.072;2022-10-20T19:22:08;101462.69;;;8.35;74.79
75497;BME280;64074;47.540;19.072;2022-10-20T19:25:29;101474.06;;;8.37;74.78
75497;BME280;64074;47.540;19.072;2022-10-20T19:29:05;101475.53;;;8.28;74.66
75497;BME280;64074;47.540;19.072;2022-10-20T19:32:20;101477.22;;;8.12;74.60
75497;BME280;64074;47.540;19.072;2022-10-20T19:35:33;101470.59;;;8.20;74.22
75497;BME280;64074;47.540;19.072;2022-10-20T19:38:47;101469.00;;;8.24;74.71
75497;BME280;64074;47.540;19.072;2022-10-20T19:41:59;101474.41;;;8.24;75.09
75497;BME280;64074;47.540;19.072;2022-10-20T19:45:07;101476.81;;;8.20;74.72
75497;BME280;64074;47.540;19.072;2022-10-20T19:48:17;101473.91;;;8.05;75.33
75497;BME280;64074;47.540;19.072;2022-10-20T19:51:36;101473.41;;;8.08;75.10
75497;BME280;64074;47.540;19.072;2022-10-20T19:54:41;101474.97;;;8.04;75.60
75497;BME280;64074;47.540;19.072;2022-10-20T19:57:45;101466.38;;;8.07;75.22
75497;BME280;64074;47.540;19.072;2022-10-20T20:00:58;101470.94;;;8.07;75.68
75497;BME280;64074;47.540;19.072;2022-10-20T20:04:10;101473.19;;;7.93;75.88
75497;BME280;64074;47.540;19.072;2022-10-20T20:07:23;101473.69;;;7.90;75.29
75497;BME280;64074;47.540;19.072;2022-10-20T20:10:28;101469.59;;;7.87;76.09
75497;BME280;64074;47.540;19.072;2022-10-20T20:13:35;101484.09;;;7.98;76.82
75497;BME280;64074;47.540;19.072;2022-10-20T20:16:45;101477.88;;;7.97;76.92
75497;BME280;64074;47.540;19.072;2022-10-20T20:20:06;101485.25;;;7.85;77.38
75497;BME280;64074;47.540;19.072;2022-10-20T20:23:28;101482.78;;;7.84;77.03
75497;BME280;64074;47.540;19.072;2022-10-20T20:27:07;101474.88;;;7.77;76.44
75497;BME280;64074;47.540;19.072;2022-10-20T20:30:17;101474.25;;;7.70;77.04
75497;BME280;64074;47.540;19.072;2022-10-20T20:33:28;101477.53;;;7.55;77.47
75497;BME280;64074;47.540;19.072;2022-10-20T20:36:56;101479.00;;;7.46;77.79
75497;BME280;64074;47.540;19.072;2022-10-20T20:40:19;101479.41;;;7.55;77.64
75497;BME280;64074;47.540;19.072;2022-10-20T20:43:43;101477.44;;;7.50;77.92
75497;BME280;64074;47.540;19.072;2022-10-20T20:46:55;101475.25;;;7.47;77.73
75497;BME280;64074;47.540;19.072;2022-10-20T20:50:25;101477.28;;;7.40;78.11
75497;BME280;64074;47.540;19.072;2022-10-20T20:53:46;101478.59;;;7.37;78.75
75497;BME280;64074;47.540;19.072;2022-10-20T20:57:10;101477.03;;;7.08;79.75
75497;BME280;64074;47.540;19.072;2022-10-20T21:00:30;101480.38;;;6.98;79.82
75497;BME280;64074;47.540;19.072;2022-10-20T21:03:52;101474.66;;;6.95;79.81
75497;BME280;64074;47.540;19.072;2022-10-20T21:07:17;101476.34;;;6.84;79.71
75497;BME280;64074;47.540;19.072;2022-10-20T21:10:38;101488.09;;;6.78;79.82
75497;BME280;64074;47.540;19.072;2022-10-20T21:13:58;101479.44;;;6.93;79.25
75497;BME280;64074;47.540;19.072;2022-10-20T21:17:17;101475.56;;;7.00;78.79
75497;BME280;64074;47.540;19.072;2022-10-20T21:20:41;101477.00;;;6.91;79.04
75497;BME280;64074;47.540;19.072;2022-10-20T21:24:02;101476.25;;;6.79;79.57
75497;BME280;64074;47.540;19.072;2022-10-20T21:27:11;101478.38;;;6.77;79.92
75497;BME280;64074;47.540;19.072;2022-10-20T21:30:39;101485.00;;;6.86;79.73
75497;BME280;64074;47.540;19.072;2022-10-20T21:34:09;101477.00;;;6.91;79.26
75497;BME280;64074;47.540;19.072;2022-10-20T21:37:22;101471.28;;;6.88;79.44
75497;BME280;64074;47.540;19.072;2022-10-20T21:40:35;101472.19;;;6.93;79.27
75497;BME280;64074;47.540;19.072;2022-10-20T21:43:49;101480.28;;;6.93;78.54
75497;BME280;64074;47.540;19.072;2022-10-20T21:46:55;101478.78;;;6.86;79.27
75497;BME280;64074;47.540;19.072;2022-10-20T21:49:58;101472.91;;;6.89;79.89
75497;BME280;64074;47.540;19.072;2022-10-20T21:53:07;101475.63;;;6.89;79.72
75497;BME280;64074;47.540;19.072;2022-10-20T21:56:17;101465.81;;;6.83;80.18